createdAt,value
2023-01-17T00:00:26.831Z,93.68
2023-01-17T00:01:26.793Z,92.74
2023-01-17T00:02:26.827Z,92.94
2023-01-17T00:03:26.908Z,93.26
2023-01-17T00:04:26.757Z,93.57
2023-01-17T00:05:26.788Z,93.30
2023-01-17T00:06:26.730Z,93.16
2023-01-17T00:07:26.728Z,93.41
2023-01-17T00:08:26.735Z,93.47
2023-01-17T00:09:26.701Z,93.62
2023-01-17T00:10:26.704Z,93.72
2023-01-17T00:11:26.694Z,93.47
2023-01-17T00:12:26.682Z,93.72
2023-01-17T00:13:26.657Z,93.57
2023-01-17T00:14:26.663Z,93.72
2023-01-17T00:15:26.673Z,93.82
2023-01-17T00:16:26.631Z,93.62
2023-01-17T00:17:26.628Z,94.03
2023-01-17T00:18:26.637Z,93.93
2023-01-17T00:19:26.629Z,94.13
2023-01-17T00:20:26.607Z,94.34
2023-01-17T00:21:26.595Z,94.86
2023-01-17T00:22:26.591Z,95.07
2023-01-17T00:23:26.571Z,95.38
2023-01-17T00:24:26.551Z,95.17
2023-01-17T00:25:26.573Z,95.17
2023-01-17T00:26:26.538Z,95.59
2023-01-17T00:27:26.552Z,95.48
2023-01-17T00:28:26.517Z,94.96
2023-01-17T00:29:26.501Z,95.38
2023-01-17T00:30:26.506Z,95.42
2023-01-17T00:31:26.505Z,95.59
2023-01-17T00:32:26.485Z,95.42
2023-01-17T00:33:26.485Z,95.53
2023-01-17T00:34:26.456Z,95.07
2023-01-17T00:35:26.445Z,95.53
2023-01-17T00:36:26.436Z,95.17
2023-01-17T00:37:26.414Z,95.11
2023-01-17T00:38:26.419Z,95.48
2023-01-17T00:39:26.379Z,95.63
2023-01-17T00:40:26.386Z,95.32
2023-01-17T00:41:26.381Z,94.80
2023-01-17T00:42:26.368Z,95.17
2023-01-17T00:43:26.361Z,95.17
2023-01-17T00:44:26.334Z,94.38
2023-01-17T00:45:26.360Z,93.72
2023-01-17T00:46:26.358Z,94.24
2023-01-17T00:47:26.320Z,93.93
2023-01-17T00:48:26.319Z,93.82
2023-01-17T00:49:26.326Z,94.34
2023-01-17T00:50:26.269Z,94.45
2023-01-17T00:51:26.277Z,94.65
2023-01-17T00:52:26.252Z,94.86
2023-01-17T00:53:26.262Z,94.34
2023-01-17T00:54:26.245Z,94.34
2023-01-17T00:55:26.231Z,93.62
2023-01-17T00:56:26.217Z,94.55
2023-01-17T00:57:26.232Z,94.76
2023-01-17T00:58:26.219Z,94.76
2023-01-17T00:59:26.192Z,95.07
2023-01-17T01:00:26.170Z,94.55
2023-01-17T01:01:26.342Z,94.34
2023-01-17T01:02:28.436Z,94.76
2023-01-17T01:03:27.180Z,93.30
2023-01-17T01:04:26.162Z,93.10
2023-01-17T01:05:26.123Z,93.30
2023-01-17T01:06:26.114Z,93.62
2023-01-17T01:07:26.105Z,93.51
2023-01-17T01:08:26.103Z,93.41
2023-01-17T01:09:26.079Z,92.47
2023-01-17T01:10:26.063Z,92.63
2023-01-17T01:11:26.072Z,92.84
2023-01-17T01:12:26.056Z,92.99
2023-01-17T01:13:26.042Z,92.57
2023-01-17T01:14:26.037Z,92.26
2023-01-17T01:15:26.020Z,93.20
2023-01-17T01:16:26.046Z,92.99
2023-01-17T01:17:26.015Z,92.88
2023-01-17T01:18:26.004Z,92.16
2023-01-17T01:19:25.986Z,92.78
2023-01-17T01:20:25.972Z,92.68
2023-01-17T01:21:25.953Z,92.36
2023-01-17T01:22:25.951Z,92.05
2023-01-17T01:23:25.931Z,92.99
2023-01-17T01:24:25.938Z,91.85
2023-01-17T01:25:25.915Z,92.68
2023-01-17T01:26:25.912Z,92.47
2023-01-17T01:27:25.903Z,92.57
2023-01-17T01:28:25.890Z,91.85
2023-01-17T01:29:25.869Z,91.85
2023-01-17T01:30:25.863Z,92.26
2023-01-17T01:31:25.849Z,91.95
2023-01-17T01:32:25.849Z,92.36
2023-01-17T01:33:25.823Z,91.95
2023-01-17T01:34:25.808Z,91.85
2023-01-17T01:35:25.808Z,91.80
2023-01-17T01:36:25.831Z,92.36
2023-01-17T01:37:25.788Z,92.16
2023-01-17T01:38:25.790Z,92.26
2023-01-17T01:39:25.807Z,91.85
2023-01-17T01:40:25.776Z,91.74
2023-01-17T01:41:25.757Z,92.26
2023-01-17T01:42:25.738Z,91.85
2023-01-17T01:43:25.728Z,91.43
2023-01-17T01:44:25.709Z,91.60
2023-01-17T01:45:25.722Z,91.85
2023-01-17T01:46:26.693Z,91.60
2023-01-17T01:47:25.687Z,91.74
2023-01-17T01:48:25.678Z,92.16
2023-01-17T01:49:25.668Z,91.64
2023-01-17T01:50:25.649Z,91.28
2023-01-17T01:51:25.642Z,91.39
2023-01-17T01:52:25.647Z,90.87
2023-01-17T01:53:26.635Z,90.77
2023-01-17T01:54:25.636Z,90.66
2023-01-17T01:55:25.591Z,91.18
2023-01-17T01:56:25.589Z,91.18
2023-01-17T01:57:25.612Z,91.08
2023-01-17T01:58:25.610Z,91.22
2023-01-17T01:59:25.582Z,91.18
2023-01-17T02:00:25.545Z,90.66
2023-01-17T02:01:25.655Z,90.81
2023-01-17T02:02:25.524Z,90.97
2023-01-17T02:03:25.526Z,90.87
2023-01-17T02:04:25.503Z,92.11
2023-01-17T02:05:25.497Z,91.22
2023-01-17T02:06:25.498Z,91.91
2023-01-17T02:07:25.462Z,92.22
2023-01-17T02:08:25.506Z,92.22
2023-01-17T02:09:25.465Z,91.22
2023-01-17T02:10:25.453Z,92.05
2023-01-17T02:11:25.442Z,91.85
2023-01-17T02:12:25.436Z,91.64
2023-01-17T02:13:25.471Z,92.16
2023-01-17T02:14:25.412Z,92.16
2023-01-17T02:15:25.394Z,92.36
2023-01-17T02:16:25.407Z,92.26
2023-01-17T02:17:25.399Z,92.16
2023-01-17T02:18:25.382Z,92.36
2023-01-17T02:19:25.347Z,92.68
2023-01-17T02:20:25.357Z,92.99
2023-01-17T02:21:25.353Z,93.10
2023-01-17T02:22:25.348Z,92.78
2023-01-17T02:23:25.320Z,92.57
2023-01-17T02:24:25.327Z,92.36
2023-01-17T02:25:25.295Z,92.78
2023-01-17T02:26:25.269Z,92.47
2023-01-17T02:27:25.301Z,92.78
2023-01-17T02:28:25.267Z,92.57
2023-01-17T02:29:25.256Z,92.68
2023-01-17T02:30:25.238Z,92.93
2023-01-17T02:31:25.276Z,93.45
2023-01-17T02:32:25.250Z,93.76
2023-01-17T02:33:25.216Z,93.66
2023-01-17T02:34:25.204Z,93.51
2023-01-17T02:35:25.179Z,93.45
2023-01-17T02:36:25.183Z,93.76
2023-01-17T02:37:25.180Z,93.66
2023-01-17T02:38:26.157Z,93.87
2023-01-17T02:39:25.167Z,93.97
2023-01-17T02:40:25.175Z,93.97
2023-01-17T02:41:25.148Z,94.07
2023-01-17T02:42:25.141Z,94.38
2023-01-17T02:43:25.114Z,94.32
2023-01-17T02:44:25.100Z,94.28
2023-01-17T02:45:25.097Z,94.18
2023-01-17T02:46:56.969Z,94.18
2023-01-17T02:47:25.085Z,94.07
2023-01-17T02:48:25.070Z,93.97
2023-01-17T02:49:25.061Z,94.07
2023-01-17T02:50:25.018Z,93.76
2023-01-17T02:51:25.044Z,93.97
2023-01-17T02:52:25.047Z,93.76
2023-01-17T02:53:24.989Z,94.07
2023-01-17T02:54:25.006Z,93.76
2023-01-17T02:55:24.987Z,93.87
2023-01-17T02:56:24.947Z,93.97
2023-01-17T02:57:24.969Z,94.18
2023-01-17T02:58:25.969Z,93.76
2023-01-17T02:59:24.939Z,93.97
2023-01-17T03:00:24.917Z,93.76
2023-01-17T03:01:25.036Z,93.14
2023-01-17T03:02:24.924Z,93.45
2023-01-17T03:03:24.886Z,93.55
2023-01-17T03:04:24.894Z,93.45
2023-01-17T03:05:24.894Z,93.87
2023-01-17T03:06:24.849Z,93.24
2023-01-17T03:07:24.862Z,93.35
2023-01-17T03:08:24.873Z,93.14
2023-01-17T03:09:24.824Z,92.82
2023-01-17T03:10:24.857Z,92.82
2023-01-17T03:11:24.825Z,92.82
2023-01-17T03:12:24.801Z,92.51
2023-01-17T03:13:24.815Z,91.33
2023-01-17T03:14:24.820Z,91.22
2023-01-17T03:15:24.780Z,92.36
2023-01-17T03:16:24.778Z,91.89
2023-01-17T03:17:24.782Z,92.30
2023-01-17T03:18:24.779Z,91.58
2023-01-17T03:19:24.749Z,91.89
2023-01-17T03:20:24.719Z,92.10
2023-01-17T03:21:24.714Z,92.20
2023-01-17T03:22:24.725Z,91.95
2023-01-17T03:23:24.709Z,91.89
2023-01-17T03:24:24.688Z,91.47
2023-01-17T03:25:24.701Z,91.68
2023-01-17T03:26:24.663Z,91.37
2023-01-17T03:27:24.646Z,90.85
2023-01-17T03:28:24.665Z,91.58
2023-01-17T03:29:24.657Z,91.89
2023-01-17T03:30:24.701Z,90.95
2023-01-17T03:31:24.613Z,91.99
2023-01-17T03:32:24.639Z,92.41
2023-01-17T03:33:24.592Z,91.99
2023-01-17T03:34:24.616Z,92.10
2023-01-17T03:35:24.591Z,92.51
2023-01-17T03:36:24.540Z,92.30
2023-01-17T03:37:24.550Z,92.30
2023-01-17T03:38:24.563Z,92.20
2023-01-17T03:39:24.544Z,92.10
2023-01-17T03:40:24.512Z,92.51
2023-01-17T03:41:24.529Z,92.30
2023-01-17T03:42:24.489Z,91.89
2023-01-17T03:43:24.487Z,92.35
2023-01-17T03:44:24.518Z,92.41
2023-01-17T03:45:24.481Z,92.30
2023-01-17T03:46:24.446Z,92.51
2023-01-17T03:47:24.449Z,92.66
2023-01-17T03:48:24.451Z,92.45
2023-01-17T03:49:24.432Z,92.20
2023-01-17T03:50:24.419Z,92.14
2023-01-17T03:51:24.417Z,92.10
2023-01-17T03:52:24.445Z,92.35
2023-01-17T03:53:24.397Z,93.07
2023-01-17T03:54:24.380Z,92.45
2023-01-17T03:55:24.369Z,92.24
2023-01-17T03:56:24.387Z,92.55
2023-01-17T03:57:24.336Z,91.93
2023-01-17T03:58:24.365Z,92.45
2023-01-17T03:59:24.363Z,92.35
2023-01-17T04:00:24.307Z,92.55
2023-01-17T04:01:24.367Z,92.35
2023-01-17T04:02:24.367Z,92.55
2023-01-17T04:03:24.306Z,91.41
2023-01-17T04:04:24.271Z,91.83
2023-01-17T04:05:24.313Z,92.14
2023-01-17T04:06:24.248Z,92.55
2023-01-17T04:07:24.262Z,92.45
2023-01-17T04:08:24.267Z,92.30
2023-01-17T04:09:24.248Z,92.35
2023-01-17T04:10:24.213Z,92.45
2023-01-17T04:11:24.220Z,92.35
2023-01-17T04:12:24.220Z,91.93
2023-01-17T04:13:24.192Z,92.45
2023-01-17T04:14:24.205Z,92.86
2023-01-17T04:15:24.181Z,92.45
2023-01-17T04:16:24.191Z,92.76
2023-01-17T04:17:24.149Z,92.76
2023-01-17T04:18:24.175Z,92.97
2023-01-17T04:19:24.152Z,92.91
2023-01-17T04:20:24.126Z,92.55
2023-01-17T04:21:24.121Z,92.24
2023-01-17T04:22:24.118Z,92.24
2023-01-17T04:23:24.105Z,92.24
2023-01-17T04:24:24.069Z,91.00
2023-01-17T04:25:24.088Z,91.46
2023-01-17T04:26:24.083Z,91.41
2023-01-17T04:27:24.057Z,92.45
2023-01-17T04:28:24.022Z,92.35
2023-01-17T04:29:24.055Z,91.62
2023-01-17T04:30:24.015Z,91.93
2023-01-17T04:31:24.032Z,91.62
2023-01-17T04:32:24.007Z,91.93
2023-01-17T04:33:24.013Z,91.93
2023-01-17T04:34:23.967Z,91.62
2023-01-17T04:35:23.967Z,91.20
2023-01-17T04:36:23.971Z,90.58
2023-01-17T04:37:23.939Z,90.89
2023-01-17T04:38:23.968Z,89.85
2023-01-17T04:39:23.949Z,90.83
2023-01-17T04:40:23.922Z,91.25
2023-01-17T04:41:23.906Z,91.52
2023-01-17T04:42:23.911Z,90.93
2023-01-17T04:43:23.904Z,90.79
2023-01-17T04:44:23.868Z,90.93
2023-01-17T04:45:23.881Z,91.56
2023-01-17T04:46:23.876Z,91.14
2023-01-17T04:47:23.839Z,91.66
2023-01-17T04:48:23.844Z,90.58
2023-01-17T04:49:23.836Z,91.41
2023-01-17T04:50:23.794Z,89.89
2023-01-17T04:51:23.811Z,89.23
2023-01-17T04:52:23.798Z,89.27
2023-01-17T04:53:23.771Z,90.10
2023-01-17T04:54:23.759Z,87.92
2023-01-17T04:55:23.760Z,88.43
2023-01-17T04:56:23.751Z,87.92
2023-01-17T04:57:23.740Z,86.98
2023-01-17T04:58:23.714Z,88.64
2023-01-17T04:59:23.717Z,88.23
2023-01-17T05:00:24.299Z,89.58
2023-01-17T05:01:24.774Z,88.54
2023-01-17T05:02:23.722Z,88.85
2023-01-17T05:03:23.677Z,88.02
2023-01-17T05:04:23.650Z,88.02
2023-01-17T05:05:23.652Z,87.40
2023-01-17T05:06:23.648Z,88.85
2023-01-17T05:07:23.640Z,88.64
2023-01-17T05:08:23.601Z,87.92
2023-01-17T05:09:23.619Z,88.02
2023-01-17T05:10:23.598Z,88.43
2023-01-17T05:11:23.579Z,87.81
2023-01-17T05:12:23.600Z,88.23
2023-01-17T05:13:23.570Z,88.64
2023-01-17T05:14:23.542Z,88.33
2023-01-17T05:15:23.556Z,88.43
2023-01-17T05:16:23.558Z,88.64
2023-01-17T05:17:23.503Z,88.12
2023-01-17T05:18:23.526Z,87.92
2023-01-17T05:19:23.510Z,89.27
2023-01-17T05:20:23.492Z,91.46
2023-01-17T05:21:23.479Z,91.77
2023-01-17T05:22:23.487Z,92.29
2023-01-17T05:23:23.468Z,93.43
2023-01-17T05:24:23.440Z,93.43
2023-01-17T05:25:23.472Z,93.68
2023-01-17T05:26:23.414Z,93.89
2023-01-17T05:27:23.409Z,93.48
2023-01-17T05:28:24.443Z,92.95
2023-01-17T05:29:23.402Z,92.85
2023-01-17T05:30:23.387Z,92.37
2023-01-17T05:31:23.455Z,92.12
2023-01-17T05:32:23.378Z,92.22
2023-01-17T05:33:23.349Z,90.97
2023-01-17T05:34:23.369Z,91.12
2023-01-17T05:35:23.359Z,91.91
2023-01-17T05:36:23.327Z,92.22
2023-01-17T05:37:23.319Z,92.79
2023-01-17T05:38:23.322Z,92.12
2023-01-17T05:39:23.313Z,91.81
2023-01-17T05:40:23.283Z,92.68
2023-01-17T05:41:23.309Z,92.37
2023-01-17T05:42:23.250Z,92.47
2023-01-17T05:43:23.270Z,92.58
2023-01-17T05:44:23.253Z,92.79
2023-01-17T05:45:23.246Z,92.95
2023-01-17T05:46:23.277Z,93.31
2023-01-17T05:47:23.215Z,93.37
2023-01-17T05:48:23.246Z,92.99
2023-01-17T05:49:23.225Z,93.48
2023-01-17T05:50:23.201Z,93.58
2023-01-17T05:51:23.181Z,93.27
2023-01-17T05:52:23.144Z,92.89
2023-01-17T05:53:23.139Z,90.91
2023-01-17T05:54:23.162Z,91.12
2023-01-17T05:55:23.158Z,91.28
2023-01-17T05:56:23.105Z,91.22
2023-01-17T05:57:23.108Z,90.45
2023-01-17T05:58:23.156Z,89.73
2023-01-17T05:59:36.652Z,90.45
2023-01-17T06:00:25.066Z,89.76
2023-01-17T06:01:23.078Z,89.14
2023-01-17T06:02:23.105Z,89.35
2023-01-17T06:03:23.048Z,89.41
2023-01-17T06:04:23.044Z,89.73
2023-01-17T06:05:23.063Z,90.19
2023-01-17T06:06:22.998Z,89.94
2023-01-17T06:07:23.021Z,90.08
2023-01-17T06:08:23.016Z,90.19
2023-01-17T06:09:23.006Z,90.29
2023-01-17T06:10:22.973Z,90.08
2023-01-17T06:11:22.960Z,89.66
2023-01-17T06:12:22.974Z,90.08
2023-01-17T06:13:22.917Z,89.98
2023-01-17T06:14:22.972Z,90.29
2023-01-17T06:15:22.922Z,90.39
2023-01-17T06:16:22.960Z,90.29
2023-01-17T06:17:22.893Z,90.60
2023-01-17T06:18:22.907Z,90.64
2023-01-17T06:19:22.888Z,91.27
2023-01-17T06:20:22.850Z,92.21
2023-01-17T06:21:22.883Z,92.52
2023-01-17T06:22:22.840Z,92.31
2023-01-17T06:23:22.834Z,92.52
2023-01-17T06:24:22.869Z,92.00
2023-01-17T06:25:22.819Z,91.37
2023-01-17T06:26:22.789Z,90.95
2023-01-17T06:27:22.838Z,90.44
2023-01-17T06:28:22.814Z,90.22
2023-01-17T06:29:22.783Z,90.19
2023-01-17T06:30:22.760Z,91.02
2023-01-17T06:31:22.793Z,90.95
2023-01-17T06:32:23.771Z,90.60
2023-01-17T06:33:22.745Z,91.37
2023-01-17T06:34:22.717Z,91.68
2023-01-17T06:35:22.706Z,92.10
2023-01-17T06:36:22.718Z,92.31
2023-01-17T06:37:22.676Z,92.62
2023-01-17T06:38:23.703Z,92.41
2023-01-17T06:39:22.674Z,92.52
2023-01-17T06:40:22.634Z,92.56
2023-01-17T06:41:22.654Z,92.56
2023-01-17T06:42:22.656Z,92.46
2023-01-17T06:43:22.632Z,92.62
2023-01-17T06:44:22.591Z,92.52
2023-01-17T06:45:22.642Z,92.66
2023-01-17T06:46:22.623Z,92.77
2023-01-17T06:47:22.577Z,92.77
2023-01-17T06:48:22.594Z,93.18
2023-01-17T06:49:22.569Z,92.66
2023-01-17T06:50:22.561Z,91.83
2023-01-17T06:51:22.551Z,91.78
2023-01-17T06:52:22.536Z,91.10
2023-01-17T06:53:22.510Z,90.58
2023-01-17T06:54:22.547Z,90.47
2023-01-17T06:55:22.499Z,90.12
2023-01-17T06:56:22.466Z,90.22
2023-01-17T06:57:22.477Z,90.01
2023-01-17T06:58:22.481Z,88.87
2023-01-17T06:59:22.462Z,88.87
2023-01-17T07:00:22.445Z,89.08
2023-01-17T07:01:22.528Z,88.98
2023-01-17T07:02:22.427Z,88.98
2023-01-17T07:03:22.426Z,90.06
2023-01-17T07:04:22.384Z,89.81
2023-01-17T07:05:22.408Z,89.91
2023-01-17T07:06:22.395Z,90.54
2023-01-17T07:07:22.363Z,91.89
2023-01-17T07:08:22.359Z,92.62
2023-01-17T07:09:22.366Z,93.14
2023-01-17T07:10:22.312Z,92.93
2023-01-17T07:11:22.316Z,93.24
2023-01-17T07:12:22.323Z,93.81
2023-01-17T07:13:22.318Z,93.98
2023-01-17T07:14:22.283Z,94.02
2023-01-17T07:15:22.315Z,94.08
2023-01-17T07:16:22.354Z,94.75
2023-01-17T07:17:22.252Z,94.75
2023-01-17T07:18:22.269Z,94.54
2023-01-17T07:19:22.243Z,94.96
2023-01-17T07:20:22.217Z,94.75
2023-01-17T07:21:22.219Z,94.90
2023-01-17T07:22:22.212Z,94.85
2023-01-17T07:23:22.197Z,94.69
2023-01-17T07:24:22.183Z,95.00
2023-01-17T07:25:22.195Z,94.79
2023-01-17T07:26:22.136Z,95.31
2023-01-17T07:27:22.145Z,95.83
2023-01-17T07:28:22.161Z,96.04
2023-01-17T07:29:22.138Z,95.73
2023-01-17T07:30:22.099Z,95.73
2023-01-17T07:31:22.180Z,95.62
2023-01-17T07:32:22.127Z,95.73
2023-01-17T07:33:22.097Z,95.88
2023-01-17T07:34:22.098Z,95.78
2023-01-17T07:35:22.065Z,95.00
2023-01-17T07:36:22.046Z,95.67
2023-01-17T07:37:22.078Z,95.78
2023-01-17T07:38:22.051Z,96.30
2023-01-17T07:39:22.019Z,95.67
2023-01-17T07:40:22.018Z,95.78
2023-01-17T07:41:22.017Z,95.15
2023-01-17T07:42:23.912Z,95.15
2023-01-17T07:43:22.970Z,95.25
2023-01-17T07:44:21.984Z,95.04
2023-01-17T07:45:21.986Z,94.84
2023-01-17T07:46:21.953Z,95.25
2023-01-17T07:47:21.940Z,95.36
2023-01-17T07:48:21.936Z,95.56
2023-01-17T07:49:21.949Z,95.46
2023-01-17T07:50:21.909Z,95.67
2023-01-17T07:51:21.889Z,96.19
2023-01-17T07:52:21.889Z,95.67
2023-01-17T07:53:21.893Z,95.88
2023-01-17T07:54:21.875Z,95.67
2023-01-17T07:55:21.853Z,95.67
2023-01-17T07:56:21.837Z,95.56
2023-01-17T07:57:21.916Z,95.67
2023-01-17T07:58:21.823Z,95.78
2023-01-17T07:59:21.809Z,95.78
2023-01-17T08:00:21.824Z,95.88
2023-01-17T08:01:21.855Z,95.98
2023-01-17T08:02:21.760Z,95.67
2023-01-17T08:03:21.847Z,95.78
2023-01-17T08:04:21.774Z,95.67
2023-01-17T08:05:21.748Z,95.88
2023-01-17T08:06:21.724Z,96.19
2023-01-17T08:07:21.735Z,96.19
2023-01-17T08:08:21.763Z,96.09
2023-01-17T08:09:21.706Z,95.67
2023-01-17T08:10:21.700Z,95.67
2023-01-17T08:11:21.699Z,95.78
2023-01-17T08:12:21.697Z,95.98
2023-01-17T08:13:21.671Z,95.78
2023-01-17T08:14:21.665Z,95.46
2023-01-17T08:15:21.646Z,95.56
2023-01-17T08:16:21.680Z,95.15
2023-01-17T08:17:21.644Z,95.31
2023-01-17T08:18:21.638Z,95.10
2023-01-17T08:19:21.608Z,95.21
2023-01-17T08:20:21.583Z,94.90
2023-01-17T08:21:21.606Z,94.69
2023-01-17T08:22:21.547Z,94.54
2023-01-17T08:23:21.559Z,94.58
2023-01-17T08:24:21.567Z,94.79
2023-01-17T08:25:21.566Z,94.58
2023-01-17T08:26:21.617Z,94.17
2023-01-17T08:27:21.510Z,94.06
2023-01-17T08:28:21.527Z,94.02
2023-01-17T08:29:21.499Z,93.91
2023-01-17T08:30:21.509Z,93.81
2023-01-17T08:31:21.501Z,93.71
2023-01-17T08:32:21.447Z,93.40
2023-01-17T08:33:21.457Z,93.46
2023-01-17T08:34:21.459Z,92.83
2023-01-17T08:35:21.451Z,93.24
2023-01-17T08:36:21.400Z,92.72
2023-01-17T08:37:21.402Z,93.04
2023-01-17T08:38:21.413Z,92.31
2023-01-17T08:39:21.394Z,92.72
2023-01-17T08:40:22.368Z,92.79
2023-01-17T08:41:21.371Z,92.37
2023-01-17T08:42:21.379Z,92.33
2023-01-17T08:43:21.351Z,92.58
2023-01-17T08:44:21.340Z,91.12
2023-01-17T08:45:21.344Z,92.12
2023-01-17T08:46:21.316Z,90.77
2023-01-17T08:47:53.216Z,90.35
2023-01-17T08:48:21.313Z,90.81
2023-01-17T08:49:21.291Z,91.22
2023-01-17T08:50:21.293Z,90.91
2023-01-17T08:51:21.302Z,91.22
2023-01-17T08:52:21.243Z,90.91
2023-01-17T08:53:21.252Z,90.60
2023-01-17T08:54:21.252Z,91.12
2023-01-17T08:55:21.235Z,90.19
2023-01-17T08:56:21.229Z,90.29
2023-01-17T08:57:21.223Z,89.76
2023-01-17T08:58:21.192Z,90.29
2023-01-17T08:59:21.182Z,90.01
2023-01-17T09:00:21.190Z,89.91
2023-01-17T09:01:21.247Z,90.22
2023-01-17T09:02:21.192Z,90.12
2023-01-17T09:03:21.141Z,90.01
2023-01-17T09:04:21.216Z,89.81
2023-01-17T09:05:21.169Z,90.44
2023-01-17T09:06:21.118Z,91.37
2023-01-17T09:07:21.104Z,91.16
2023-01-17T09:08:21.102Z,92.56
2023-01-17T09:09:21.094Z,92.77
2023-01-17T09:10:21.097Z,93.18
2023-01-17T09:11:21.081Z,93.60
2023-01-17T09:12:21.069Z,93.18
2023-01-17T09:13:21.040Z,93.81
2023-01-17T09:14:21.057Z,93.91
2023-01-17T09:15:21.024Z,93.71
2023-01-17T09:16:21.058Z,94.02
2023-01-17T09:17:20.997Z,94.75
2023-01-17T09:18:20.989Z,95.42
2023-01-17T09:19:20.960Z,95.73
2023-01-17T09:20:21.004Z,96.11
2023-01-17T09:21:20.960Z,95.73
2023-01-17T09:22:20.948Z,96.00
2023-01-17T09:23:20.964Z,95.79
2023-01-17T09:24:20.937Z,95.68
2023-01-17T09:25:20.929Z,95.73
2023-01-17T09:26:20.920Z,95.42
2023-01-17T09:27:20.896Z,95.73
2023-01-17T09:28:20.882Z,96.00
2023-01-17T09:29:20.877Z,95.62
2023-01-17T09:30:20.891Z,96.04
2023-01-17T09:31:20.861Z,96.15
2023-01-17T09:32:20.847Z,96.67
2023-01-17T09:33:20.834Z,96.56
2023-01-17T09:34:20.813Z,95.94
2023-01-17T09:35:20.830Z,96.21
2023-01-17T09:36:20.812Z,96.00
2023-01-17T09:37:20.803Z,95.79
2023-01-17T09:38:20.799Z,95.58
2023-01-17T09:39:20.802Z,95.79
2023-01-17T09:40:20.902Z,95.68
2023-01-17T09:41:20.748Z,95.64
2023-01-17T09:42:20.785Z,95.85
2023-01-17T09:43:20.726Z,95.95
2023-01-17T09:44:20.738Z,95.68
2023-01-17T09:45:20.689Z,95.58
2023-01-17T09:46:20.714Z,96.06
2023-01-17T09:47:20.744Z,95.50
2023-01-17T09:48:20.683Z,95.50
2023-01-17T09:49:20.665Z,95.60
2023-01-17T09:50:20.696Z,95.64
2023-01-17T09:51:20.651Z,95.54
2023-01-17T09:52:20.705Z,96.43
2023-01-17T09:53:20.630Z,95.29
2023-01-17T09:54:20.643Z,94.93
2023-01-17T09:55:20.603Z,95.03
2023-01-17T09:56:20.611Z,95.97
2023-01-17T09:57:20.573Z,95.56
2023-01-17T09:58:20.577Z,95.66
2023-01-17T09:59:20.606Z,94.68
2023-01-17T10:00:20.642Z,94.37
2023-01-17T10:01:20.706Z,94.99
2023-01-17T10:02:20.790Z,94.57
2023-01-17T10:03:20.627Z,93.23
2023-01-17T10:04:20.568Z,92.80
2023-01-17T10:05:20.537Z,93.27
2023-01-17T10:06:20.507Z,93.23
2023-01-17T10:07:20.482Z,93.74
2023-01-17T10:08:20.482Z,92.80
2023-01-17T10:09:20.457Z,92.54
2023-01-17T10:10:20.552Z,92.74
2023-01-17T10:11:20.477Z,92.85
2023-01-17T10:12:20.451Z,92.37
2023-01-17T10:13:20.422Z,93.10
2023-01-17T10:14:20.408Z,93.93
2023-01-17T10:15:20.381Z,94.98
2023-01-17T10:16:20.514Z,94.82
2023-01-17T10:17:20.384Z,94.76
2023-01-17T10:18:29.597Z,94.60
2023-01-17T10:19:22.356Z,95.02
2023-01-17T10:20:20.344Z,95.29
2023-01-17T10:21:20.333Z,95.08
2023-01-17T10:22:20.346Z,94.56
2023-01-17T10:23:20.337Z,94.20
2023-01-17T10:24:20.325Z,93.27
2023-01-17T10:25:20.299Z,93.16
2023-01-17T10:26:20.284Z,92.60
2023-01-17T10:27:20.301Z,93.01
2023-01-17T10:28:20.246Z,92.70
2023-01-17T10:29:21.191Z,92.29
2023-01-17T10:30:21.254Z,92.55
2023-01-17T10:31:20.228Z,92.55
2023-01-17T10:32:20.226Z,92.14
2023-01-17T10:33:20.238Z,91.58
2023-01-17T10:34:20.207Z,91.78
2023-01-17T10:35:20.192Z,90.81
2023-01-17T10:36:20.187Z,90.23
2023-01-17T10:37:20.193Z,88.84
2023-01-17T10:38:20.218Z,88.31
2023-01-17T10:39:20.166Z,87.84
2023-01-17T10:40:20.138Z,89.08
2023-01-17T10:41:20.132Z,88.87
2023-01-17T10:42:20.119Z,88.84
2023-01-17T10:43:20.125Z,88.62
2023-01-17T10:44:20.091Z,87.65
2023-01-17T10:45:20.090Z,87.03
2023-01-17T10:46:20.150Z,87.19
2023-01-17T10:47:20.079Z,86.16
2023-01-17T10:48:22.466Z,86.18
2023-01-17T10:49:20.072Z,84.42
2023-01-17T10:50:20.051Z,83.86
2023-01-17T10:51:20.028Z,83.14
2023-01-17T10:52:20.049Z,81.27
2023-01-17T10:53:20.006Z,82.20
2023-01-17T10:54:20.014Z,81.85
2023-01-17T10:55:20.004Z,80.78
2023-01-17T10:56:19.999Z,80.40
2023-01-17T10:57:19.991Z,78.95
2023-01-17T10:58:19.958Z,78.53
2023-01-17T10:59:19.933Z,77.87
2023-01-17T11:00:19.927Z,76.81
2023-01-17T11:01:20.090Z,76.18
2023-01-17T11:02:20.116Z,75.63
2023-01-17T11:03:19.947Z,73.98
2023-01-17T11:04:19.891Z,73.47
2023-01-17T11:05:19.876Z,73.64
2023-01-17T11:06:19.897Z,75.78
2023-01-17T11:07:19.853Z,76.78
2023-01-17T11:08:19.872Z,78.44
2023-01-17T11:09:20.850Z,78.68
2023-01-17T11:10:19.831Z,79.69
2023-01-17T11:11:19.828Z,80.07
2023-01-17T11:12:19.823Z,80.69
2023-01-17T11:13:19.808Z,80.76
2023-01-17T11:14:19.796Z,80.35
2023-01-17T11:15:19.838Z,77.99
2023-01-17T11:16:19.772Z,77.89
2023-01-17T11:17:19.755Z,78.68
2023-01-17T11:18:19.758Z,79.20
2023-01-17T11:19:19.739Z,78.20
2023-01-17T11:20:19.725Z,76.23
2023-01-17T11:21:19.713Z,75.15
2023-01-17T11:22:19.731Z,76.09
2023-01-17T11:23:19.715Z,74.84
2023-01-17T11:24:19.691Z,74.63
2023-01-17T11:25:19.689Z,72.90
2023-01-17T11:26:19.674Z,72.80
2023-01-17T11:27:19.684Z,73.84
2023-01-17T11:28:19.636Z,73.49
2023-01-17T11:29:19.643Z,73.39
2023-01-17T11:30:19.625Z,73.36
2023-01-17T11:31:19.684Z,73.36
2023-01-17T11:32:19.597Z,72.25
2023-01-17T11:33:19.612Z,72.04
2023-01-17T11:34:19.574Z,72.56
2023-01-17T11:35:19.593Z,72.04
2023-01-17T11:36:19.615Z,72.80
2023-01-17T11:37:19.561Z,73.32
2023-01-17T11:38:19.565Z,74.57
2023-01-17T11:39:19.533Z,75.12
2023-01-17T11:40:19.567Z,75.22
2023-01-17T11:41:19.499Z,75.95
2023-01-17T11:42:19.499Z,76.19
2023-01-17T11:43:19.524Z,75.64
2023-01-17T11:44:19.472Z,76.26
2023-01-17T11:45:19.477Z,75.32
2023-01-17T11:46:19.551Z,75.09
2023-01-17T11:47:19.505Z,74.05
2023-01-17T11:48:19.445Z,73.32
2023-01-17T11:49:19.457Z,73.18
2023-01-17T11:50:19.443Z,72.87
2023-01-17T11:51:19.416Z,72.56
2023-01-17T11:52:19.514Z,72.90
2023-01-17T11:53:19.383Z,72.90
2023-01-17T11:54:19.418Z,73.00
2023-01-17T11:55:19.393Z,73.32
2023-01-17T11:56:19.381Z,73.00
2023-01-17T11:57:19.422Z,74.46
2023-01-17T11:58:19.360Z,73.32
2023-01-17T11:59:19.336Z,72.87
2023-01-17T12:00:19.337Z,73.70
2023-01-17T12:01:19.377Z,72.66
2023-01-17T12:02:19.344Z,73.28
2023-01-17T12:03:19.308Z,73.36
2023-01-17T12:04:19.317Z,71.97
2023-01-17T12:05:19.315Z,72.39
2023-01-17T12:06:19.268Z,71.66
2023-01-17T12:07:19.266Z,71.25
2023-01-17T12:08:19.253Z,70.70
2023-01-17T12:09:20.007Z,70.18
2023-01-17T12:10:19.236Z,70.18
2023-01-17T12:11:19.226Z,70.39
2023-01-17T12:12:19.212Z,70.18
2023-01-17T12:13:20.194Z,70.70
2023-01-17T12:14:19.191Z,70.15
2023-01-17T12:15:19.173Z,69.73
2023-01-17T12:16:19.209Z,69.94
2023-01-17T12:17:19.155Z,69.42
2023-01-17T12:18:19.161Z,69.60
2023-01-17T12:19:19.140Z,70.01
2023-01-17T12:20:19.265Z,68.04
2023-01-17T12:21:19.125Z,68.25
2023-01-17T12:22:19.115Z,68.35
2023-01-17T12:23:19.105Z,68.66
2023-01-17T12:24:19.114Z,68.53
2023-01-17T12:25:19.082Z,68.15
2023-01-17T12:26:19.048Z,67.94
2023-01-17T12:27:19.066Z,68.46
2023-01-17T12:28:19.058Z,68.56
2023-01-17T12:29:19.020Z,68.56
2023-01-17T12:30:19.009Z,68.07
2023-01-17T12:31:19.171Z,70.04
2023-01-17T12:32:18.992Z,68.28
2023-01-17T12:33:18.989Z,68.28
2023-01-17T12:34:19.010Z,68.59
2023-01-17T12:35:18.985Z,68.46
2023-01-17T12:36:18.968Z,68.07
2023-01-17T12:37:18.956Z,68.59
2023-01-17T12:38:31.829Z,68.70
2023-01-17T12:39:20.938Z,68.15
2023-01-17T12:40:18.946Z,68.46
2023-01-17T12:41:18.904Z,67.97
2023-01-17T12:42:18.908Z,66.83
2023-01-17T12:43:18.878Z,67.55
2023-01-17T12:44:18.895Z,67.66
2023-01-17T12:45:18.866Z,67.60
2023-01-17T12:46:18.875Z,66.15
2023-01-17T12:47:18.859Z,66.25
2023-01-17T12:48:18.845Z,66.66
2023-01-17T12:49:18.841Z,66.15
2023-01-17T12:50:18.812Z,65.39
2023-01-17T12:51:18.810Z,65.44
2023-01-17T12:52:18.812Z,64.27